TimeEDT,TemperatureF,Dew PointF,Humidity,Sea Level PressureIn,VisibilityMPH,Wind Direction,Wind SpeedMPH,Gust SpeedMPH,PrecipitationIn,Events,Conditions,WindDirDegrees,DateUTC
12:00 AM,32.0,32.0,100,30.05,1.2,Calm,Calm,-,N/A,,Clear,0,2013-04-11 04:00:00
12:01 AM,32.0,32.0,100,30.05,1.0,Calm,Calm,-,N/A,,Clear,0,2013-04-11 04:01:00
12:07 AM,33.8,33.8,100,30.04,1.2,Variable,2.3,-,N/A,,Clear,0,2013-04-11 04:07:00
12:13 AM,32.0,32.0,100,30.04,1.0,NNE,2.3,-,N/A,,Clear,20,2013-04-11 04:13:00
12:25 AM,32.0,32.0,100,30.03,1.2,NNE,3.5,-,N/A,,Partly Cloudy,20,2013-04-11 04:25:00
12:33 AM,32.0,32.0,100,30.03,2.5,NNE,3.5,-,N/A,,Scattered Clouds,20,2013-04-11 04:33:00
12:34 AM,32.0,32.0,100,30.03,3.0,NNE,3.5,-,N/A,,Mostly Cloudy,20,2013-04-11 04:34:00
12:36 AM,32.0,32.0,100,30.03,9.0,NNE,2.3,-,N/A,,Mostly Cloudy,20,2013-04-11 04:36:00
1:00 AM,32.0,32.0,100,30.05,9.0,Calm,Calm,-,N/A,,Mostly Cloudy,0,2013-04-11 05:00:00
2:00 AM,-6,-9,77,30.16,,NE,4.6,,,,,40,2013-04-11 06:00:00
2:00 AM,35.6,26.6,70,30.06,9.0,NNE,6.9,-,N/A,,Overcast,20,2013-04-11 06:00:00
3:00 AM,35.6,24.8,65,30.08,9.0,NNE,8.1,-,N/A,,Overcast,20,2013-04-11 07:00:00
4:00 AM,33.8,23.0,65,30.09,9.0,ENE,5.8,-,N/A,,Overcast,60,2013-04-11 08:00:00
5:00 AM,33.8,23.0,65,30.10,9.0,NE,11.5,-,N/A,,Overcast,40,2013-04-11 09:00:00
6:00 AM,32.0,21.2,64,30.10,9.0,NE,8.1,-,N/A,,Overcast,40,2013-04-11 10:00:00
7:00 AM,32.0,21.2,64,30.12,9.0,NE,10.4,-,N/A,,Overcast,40,2013-04-11 11:00:00
8:00 AM,-5,-8,78,30.14,,NNE,6.9,,,,,30,2013-04-11 12:00:00
8:00 AM,32.0,21.2,64,30.15,9.0,ENE,10.4,-,N/A,,Overcast,60,2013-04-11 12:00:00
9:00 AM,30.2,19.4,64,30.14,9.0,NE,13.8,-,N/A,,Overcast,50,2013-04-11 13:00:00
10:00 AM,30.2,19.4,64,30.15,9.0,ENE,10.4,-,N/A,,Overcast,60,2013-04-11 14:00:00
11:00 AM,32.0,19.4,60,30.17,9.0,NE,8.1,-,N/A,,Overcast,50,2013-04-11 15:00:00
1:00 PM,33.8,15.8,48,30.16,9.0,East,12.7,-,N/A,,Overcast,80,2013-04-11 17:00:00
2:00 PM,15,9,69,30.09,,South,18.4,,,,,170,2013-04-11 18:00:00
2:00 PM,33.8,15.8,48,30.14,9.0,ENE,9.2,-,N/A,,Overcast,70,2013-04-11 18:00:00
3:00 PM,35.6,15.8,44,30.16,9.0,East,10.4,-,N/A,,Overcast,80,2013-04-11 19:00:00
4:00 PM,33.8,14.0,44,30.12,9.0,ENE,13.8,19.6,N/A,,Overcast,70,2013-04-11 20:00:00
5:00 PM,35.6,12.2,38,30.11,9.0,East,11.5,18.4,N/A,,Overcast,90,2013-04-11 21:00:00
6:00 PM,33.8,14.0,44,30.12,9.0,ENE,13.8,21.9,N/A,,Overcast,70,2013-04-11 22:00:00
6:20 PM,33.8,14.0,44,30.11,9.0,East,10.4,21.9,N/A,,Overcast,80,2013-04-11 22:20:00
6:26 PM,33.8,14.0,44,30.12,9.0,East,12.7,18.4,N/A,Snow,Light Snow,80,2013-04-11 22:26:00
6:29 PM,33.8,14.0,44,30.12,9.0,East,10.4,17.3,N/A,Snow,Light Snow,90,2013-04-11 22:29:00
6:31 PM,33.8,14.0,44,30.12,9.0,East,11.5,17.3,N/A,Rain-Snow,Light Snow,80,2013-04-11 22:31:00
6:43 PM,33.8,15.8,48,30.12,9.0,ENE,10.4,19.6,N/A,Snow,Light Snow,70,2013-04-11 22:43:00
7:00 PM,33.8,17.6,52,30.13,9.0,ENE,9.2,-,N/A,Snow,Light Snow,70,2013-04-11 23:00:00
7:12 PM,33.8,17.6,52,30.12,9.0,ENE,11.5,-,N/A,Rain-Snow,Light Snow,60,2013-04-11 23:12:00
7:15 PM,33.8,15.8,48,30.11,9.0,ENE,13.8,-,N/A,Rain,Light Rain,60,2013-04-11 23:15:00
7:24 PM,33.8,17.6,52,30.10,9.0,ENE,13.8,-,N/A,,Overcast,60,2013-04-11 23:24:00
8:00 PM,20,18,88,30.12,,SSW,10.4,,,,,200,2013-04-12 00:00:00
8:00 PM,33.8,15.8,48,30.10,9.0,ENE,12.7,19.6,N/A,,Overcast,70,2013-04-12 00:00:00
8:12 PM,33.8,15.8,48,30.11,9.0,ENE,12.7,-,N/A,Rain,Light Rain,70,2013-04-12 00:12:00
8:33 PM,33.8,17.6,52,30.10,9.0,ENE,12.7,20.7,N/A,,Overcast,60,2013-04-12 00:33:00
9:00 PM,33.8,17.6,52,30.11,9.0,ENE,9.2,18.4,N/A,,Overcast,70,2013-04-12 01:00:00
10:00 PM,33.8,17.6,52,30.10,9.0,ENE,15.0,24.2,N/A,,Overcast,60,2013-04-12 02:00:00
11:00 PM,33.8,17.6,52,30.08,9.0,ENE,16.1,25.3,N/A,,Overcast,60,2013-04-12 03:00:00